Observation Tools

Ponderosa pine Photo courtesy of Sally and Andy Wasowski, Lady Bird Wildflower Center, www.wildflower.org.

Ponderosa pine (Pinus ponderosa)


Also Known As: Western yellow pine, Bull pine, Yellow pine
Plant Family: Pine (Pinaceae)
Project BudBurst Plant Group: Conifers

Identification Hints: Ponderosa pine is the iconic pine of the interior west, with its thick colorful bark which can be bright orange or yellow in color in open sunny spots. It is the only 3-needle pine in the Rockies. In California, and near its borders in Oregon and Nevada and in the Southwest there are other 3-needle pines and ornamental pines that can be confused withponderosa. Jeffrey pine is very similar but usually has larger cones up to 38 cm (15 in), and purplish twigs (the twigs are orange to red in ponderosa). Jeffrey pine twigs have a pineapple-like odor. In Arizona and New Mexico Apache pine is found which has longer needles up to 38 cm (15 in).

Did you Know? Ponderosa pine got its name because of its ponderous, or heavy, wood. It is one of the most widely distributed pines in western North America. Ponderosa pine is a major source of timber, which is especially suited for window frames and panel doors. Ponderosa pine forests are alsoimportant as wildlife habitat. Quail, nutcrackers, squirrels, and many other kinds of wildlife consume the seeds. Dispersal is aided by chipmunks that store the seeds in their caches.


Live Map for Ponderosa pine

Other years available for viewing:

Below you can view all observations that have been reported in for Ponderosa pine (If the map below is empty then there have not been any observations reported.)

Use the navigation buttons on the left to zoom in/out and pan around. Click on each place marker to get detail information about that observation.

Leaf/Needles/Stalk = Leaf/Needles/Stalk Flower = Flower Pollen = Pollen Fruiting = Fruiting Color = Color

--Back to Top--

close help window button

The table below displays all the data that has been submitted to Project BudBurst. By default, the data is sorted by the date on which the phenophase occurred. Clicking the up and down arrows next to each column name allows you to sort on any value. If there have been more than 10 observations submitted, you can choose how many to display at a time using the "Show __ entries" control. You can also page through the data using the previous and next buttons at the bottom right of the table.

The Search box allows you to search all of the data. Searching by date, species, phenophase, etc. is easy—just start typing and the table will immediately change to contain only observations that contain your search phrase. Do you want to see only 2012 observations? Just type "2012" in the search box. Only want to see maples? Enter "Acer." You can combine searches, too! Searching for "acer 2012" will narrow your results to only the maples that were observed in 2012 (assuming that any observations exist, of course).

Once you have your results in the order desired, you can use any of the buttons above the search box to copy the results to the clipboard; save them as a text, or spreadsheet; or even print them from your browser!

Observational data for Ponderosa pine:

help button
Date Contributor Common Name Species Phenophase Latitude Longitude Obs#
Tue May 20 00:00:00 GMT 2008 jjasedwards Ponderosa pine Pinus ponderosa First Flower 42.148900000000000 -83.927000000000000 3827
Fri Jun 20 00:00:00 GMT 2008 pippiandsophie Ponderosa pine Pinus ponderosa First Ripe Fruit 38.599400000000000 -105.176000000000000 4226
Fri Mar 06 00:00:00 GMT 2009 anonymous Ponderosa pine Pinus ponderosa First Needles 41.904500000000000 -87.804000000000000 5059
Fri Feb 06 00:00:00 GMT 2009 ncast Ponderosa pine Pinus ponderosa First Needles 41.974500000000000 -87.804000000000000 5068
Sun May 17 00:00:00 GMT 2009 wtwheels Ponderosa pine Pinus ponderosa First Pollen 38.983100000000000 -104.690000000000000 7661
Tue May 26 00:00:00 GMT 2009 Looeez Ponderosa pine Pinus ponderosa First Pollen 47.313800000000000 -117.333000000000000 8181
Tue Jun 02 00:00:00 GMT 2009 Looeez Ponderosa pine Pinus ponderosa Full Pollen 47.313800000000000 -117.333000000000000 8182
Fri May 22 00:00:00 GMT 2009 palaback Ponderosa pine Pinus ponderosa First Needles 46.866700000000000 -114.000000000000000 8727
Sun Jun 07 00:00:00 GMT 2009 palaback Ponderosa pine Pinus ponderosa First Pollen 46.866700000000000 -114.000000000000000 8728
Sun Jun 07 00:00:00 GMT 2009 palaback Ponderosa pine Pinus ponderosa Full Pollen 46.866700000000000 -114.000000000000000 8729
Sun Sep 27 00:00:00 GMT 2009 palaback Ponderosa pine Pinus ponderosa First Ripe Fruit 46.866700000000000 -114.000000000000000 8730
Fri Jan 29 00:00:00 GMT 2010 rmunoz_06 Ponderosa pine Pinus ponderosa First Needles 31.851300000000000 -106.631000000000000 9274
Fri Jan 29 00:00:00 GMT 2010 rmunoz_06 Ponderosa pine Pinus ponderosa First Pollen 31.851300000000000 -106.631000000000000 9275
Thu Apr 29 00:00:00 GMT 2010 rmunoz_06 Ponderosa pine Pinus ponderosa Full Pollen 31.851300000000000 -106.631000000000000 9276
Thu Apr 29 00:00:00 GMT 2010 rmunoz_06 Ponderosa pine Pinus ponderosa First Ripe Fruit 31.851300000000000 -106.631000000000000 9277
Tue May 25 00:00:00 GMT 2010 saramerry99 Ponderosa pine Pinus ponderosa First Needles 46.877100000000000 -113.945000000000000 10680
Thu Jun 10 00:00:00 GMT 2010 HansR Ponderosa pine Pinus ponderosa First Needles 39.971400000000000 -105.397000000000000 10761
Mon Jun 07 00:00:00 GMT 2010 palaback Ponderosa pine Pinus ponderosa First Pollen 46.840100000000000 -113.990000000000000 10872
Tue Jun 08 00:00:00 GMT 2010 palaback Ponderosa pine Pinus ponderosa Full Pollen 46.840100000000000 -113.990000000000000 10873
Thu Jun 17 00:00:00 GMT 2010 HansR Ponderosa pine Pinus ponderosa First Pollen 39.971400000000000 -105.397000000000000 10935
Sun Jun 20 00:00:00 GMT 2010 HansR Ponderosa pine Pinus ponderosa Full Pollen 39.971400000000000 -105.397000000000000 10936
Fri Aug 13 00:00:00 GMT 2010 koichan Ponderosa pine Pinus ponderosa First Needles 43.942800000000000 -122.853000000000000 11124
Fri Aug 13 00:00:00 GMT 2010 koichan Ponderosa pine Pinus ponderosa First Pollen 43.942800000000000 -122.853000000000000 11125
Fri Aug 13 00:00:00 GMT 2010 koichan Ponderosa pine Pinus ponderosa Full Pollen 43.942800000000000 -122.853000000000000 11126
Fri Aug 13 00:00:00 GMT 2010 koichan Ponderosa pine Pinus ponderosa First Ripe Fruit 43.942800000000000 -122.853000000000000 11127
Thu Aug 12 00:00:00 GMT 2010 HansR Ponderosa pine Pinus ponderosa First Ripe Fruit 39.971400000000000 -105.397000000000000 11170
Thu Jun 10 00:00:00 GMT 2010 HansR Ponderosa pine Pinus ponderosa First Needles 39.971400000000000 -105.397000000000000 11178
Thu Jun 17 00:00:00 GMT 2010 HansR Ponderosa pine Pinus ponderosa First Pollen 39.971400000000000 -105.397000000000000 11179
Sun Jun 20 00:00:00 GMT 2010 HansR Ponderosa pine Pinus ponderosa Full Pollen 39.971400000000000 -105.397000000000000 11180
Thu Jun 10 00:00:00 GMT 2010 HansR Ponderosa pine Pinus ponderosa First Needles 39.971400000000000 -105.397000000000000 11175
Thu Jun 17 00:00:00 GMT 2010 HansR Ponderosa pine Pinus ponderosa First Pollen 39.971400000000000 -105.397000000000000 11176
Sun Jun 20 00:00:00 GMT 2010 HansR Ponderosa pine Pinus ponderosa Full Pollen 39.971400000000000 -105.397000000000000 11177
Thu Jun 10 00:00:00 GMT 2010 HansR Ponderosa pine Pinus ponderosa First Needles 39.971400000000000 -105.397000000000000 11212
Thu Jun 17 00:00:00 GMT 2010 HansR Ponderosa pine Pinus ponderosa First Pollen 39.971400000000000 -105.397000000000000 11213
Sun Jun 20 00:00:00 GMT 2010 HansR Ponderosa pine Pinus ponderosa Full Pollen 39.971400000000000 -105.397000000000000 11214
Thu Jun 10 00:00:00 GMT 2010 HansR Ponderosa pine Pinus ponderosa First Needles 39.971400000000000 -105.397000000000000 11246
Thu Jun 17 00:00:00 GMT 2010 HansR Ponderosa pine Pinus ponderosa First Pollen 39.971400000000000 -105.397000000000000 11247
Sun Jun 20 00:00:00 GMT 2010 HansR Ponderosa pine Pinus ponderosa Full Pollen 39.971400000000000 -105.397000000000000 11248
Thu Jun 10 00:00:00 GMT 2010 HansR Ponderosa pine Pinus ponderosa First Needles 39.971400000000000 -105.397000000000000 11366
Thu Jun 17 00:00:00 GMT 2010 HansR Ponderosa pine Pinus ponderosa First Pollen 39.971400000000000 -105.397000000000000 11367
Sun Jun 20 00:00:00 GMT 2010 HansR Ponderosa pine Pinus ponderosa Full Pollen 39.971400000000000 -105.397000000000000 11368
Wed May 11 00:00:00 GMT 2011 birdlover Ponderosa pine Pinus ponderosa First Needles 40.790300000000000 -96.791500000000000 13121
Thu Jun 23 00:00:00 GMT 2011 HansR Ponderosa pine Pinus ponderosa First Needles 39.971400000000000 -105.397000000000000 13149
Thu Jun 23 00:00:00 GMT 2011 HansR Ponderosa pine Pinus ponderosa First Pollen 39.971400000000000 -105.397000000000000 13150
Thu Jun 30 00:00:00 GMT 2011 HansR Ponderosa pine Pinus ponderosa Full Pollen 39.971400000000000 -105.397000000000000 13151
Fri Apr 29 00:00:00 GMT 2011 Joseph Boland Ponderosa pine Pinus ponderosa First Needles 39.761200000000000 -105.230000000000000 13157
Fri May 13 00:00:00 GMT 2011 Joseph Boland Ponderosa pine Pinus ponderosa First Pollen 39.761200000000000 -105.230000000000000 13158
Fri May 20 00:00:00 GMT 2011 Joseph Boland Ponderosa pine Pinus ponderosa Full Pollen 39.761200000000000 -105.230000000000000 13159
Sun Sep 25 00:00:00 GMT 2011 HansR Ponderosa pine Pinus ponderosa First Ripe Fruit 39.971400000000000 -105.397000000000000 13667
Thu Oct 06 00:00:00 GMT 2011 HansR Ponderosa pine Pinus ponderosa Full Fruiting 39.971400000000000 -105.397000000000000 13668
Mon Apr 23 00:00:00 GMT 2012 Joseph Boland Ponderosa pine Pinus ponderosa First Needles 39.761200000000000 -105.230000000000000 15187
Tue Apr 24 00:00:00 GMT 2012 Joseph Boland Ponderosa pine Pinus ponderosa First Pollen 39.761200000000000 -105.230000000000000 15241
Fri Apr 27 00:00:00 GMT 2012 Joseph Boland Ponderosa pine Pinus ponderosa Full Pollen 39.761200000000000 -105.230000000000000 15325
Sat May 05 00:00:00 GMT 2012 snewman14 Ponderosa pine Pinus ponderosa First Needles 44.594000000000000 -104.711000000000000 15518
Thu Mar 08 00:00:00 GMT 2012 palaback Ponderosa pine Pinus ponderosa First Needles 40.307500000000000 -105.084000000000000 15744
Tue May 08 00:00:00 GMT 2012 palaback Ponderosa pine Pinus ponderosa First Pollen 40.307500000000000 -105.084000000000000 15745
Tue May 08 00:00:00 GMT 2012 palaback Ponderosa pine Pinus ponderosa Full Pollen 40.307500000000000 -105.084000000000000 15746
Tue May 22 00:00:00 GMT 2012 grandstaff Ponderosa pine Pinus ponderosa First Pollen 46.192700000000000 -114.167000000000000 15757
Tue May 15 00:00:00 GMT 2012 grandstaff Ponderosa pine Pinus ponderosa First Needles 46.192700000000000 -114.167000000000000 15827
Sun Jun 17 00:00:00 GMT 2012 bandjnewman Ponderosa pine Pinus ponderosa First Needles 40.348400000000000 -105.429000000000000 16030
Sat Jun 16 00:00:00 GMT 2012 snewman14 Ponderosa pine Pinus ponderosa Fruit (Early) 39.749100000000000 -104.941000000000000 16069
Fri Apr 20 00:00:00 GMT 2012 birdlover Ponderosa pine Pinus ponderosa First Needles 40.790300000000000 -96.791500000000000 16121
Tue Sep 04 00:00:00 GMT 2012 baseball Ponderosa pine Pinus ponderosa First Needles 42.603800000000000 -83.101000000000000 16466
Wed Sep 05 00:00:00 GMT 2012 lwasser Ponderosa pine Pinus ponderosa Pollen (None) 39.967300000000000 -105.254000000000000 16544
Sun Sep 16 00:00:00 GMT 2012 bandjnewman Ponderosa pine Pinus ponderosa Fruit (Late) 40.348400000000000 -105.429000000000000 16610
Fri Jan 25 00:00:00 GMT 2013 matthewreid007 Ponderosa pine Pinus ponderosa Fruit (Late) 40.246200000000000 -111.652000000000000 17824
Mon Mar 04 00:00:00 GMT 2013 logandg Ponderosa pine Pinus ponderosa First Needles 40.210300000000000 -111.622000000000000 18098
Mon Apr 08 00:00:00 GMT 2013 sakeefe Ponderosa pine Pinus ponderosa First Needles 39.168400000000000 -86.512100000000000 18631
Thu Apr 25 00:00:00 GMT 2013 emilysage_Sage_Lollipop_reporter5 Ponderosa pine Pinus ponderosa First Needles 43.519600000000000 -114.315000000000000 20021
Tue May 21 00:00:00 GMT 2013 DenverBotanicGardens_DBG_-_York_Street_reporter1 Ponderosa pine Pinus ponderosa First Needles 39.731900000000000 -104.961000000000000 20803
Sat May 25 00:00:00 GMT 2013 birdlover Ponderosa pine Pinus ponderosa First Needles 40.790300000000000 -96.791500000000000 20882
Thu May 30 00:00:00 GMT 2013 JeffcoNR Ponderosa pine Pinus ponderosa First Needles 39.719700000000000 -105.227000000000000 20930
Fri Jun 07 00:00:00 GMT 2013 JeffcoNR Ponderosa pine Pinus ponderosa Full Pollen 39.719700000000000 -105.227000000000000 21125
Thu Jun 06 00:00:00 GMT 2013 DenverBotanicGardens_DBG_-_York_Street_reporter1 Ponderosa pine Pinus ponderosa First Pollen 39.731900000000000 -104.961000000000000 21156
Tue Jun 11 00:00:00 GMT 2013 DenverBotanicGardens_DBG_-_York_Street_reporter1 Ponderosa pine Pinus ponderosa Full Pollen 39.731900000000000 -104.961000000000000 21157
Fri Jun 14 00:00:00 GMT 2013 bandjnewman Ponderosa pine Pinus ponderosa Full Pollen 40.348800000000000 -105.428000000000000 21184
Mon Jul 08 00:00:00 GMT 2013 JeffcoNR Ponderosa pine Pinus ponderosa Full Fruiting 39.719700000000000 -105.227000000000000 21503
Thu Jun 27 00:00:00 GMT 2013 JeffcoNR Ponderosa pine Pinus ponderosa First Ripe Fruit 39.719700000000000 -105.227000000000000 21504
Sat Jul 13 00:00:00 GMT 2013 snewman14 Ponderosa pine Pinus ponderosa Pollen (None) 39.749900000000000 -104.952000000000000 21540
Tue Jul 02 00:00:00 GMT 2013 JeffcoNR Ponderosa pine Pinus ponderosa Full Pollen 39.661000000000000 -105.362000000000000 21791
Mon Jun 03 00:00:00 GMT 2013 JeffcoNR Ponderosa pine Pinus ponderosa First Needles 39.661000000000000 -105.362000000000000 21790
Wed Jun 19 00:00:00 GMT 2013 JeffcoNR Ponderosa pine Pinus ponderosa First Pollen 39.661000000000000 -105.362000000000000 21789
Mon Aug 12 00:00:00 GMT 2013 JeffcoNR Ponderosa pine Pinus ponderosa First Ripe Fruit 39.661000000000000 -105.362000000000000 21851
Thu May 09 00:00:00 GMT 2013 wheelerp Ponderosa pine Pinus ponderosa First Needles 44.711700000000000 -123.366000000000000 22247
Tue Oct 22 00:00:00 GMT 2013 mcfaddjm_Charlemagne_Elementary_School_reporter8 Ponderosa pine Pinus ponderosa Full Fruiting 43.999200000000000 -123.081000000000000 22774
Fri Oct 25 00:00:00 GMT 2013 JeffcoNR Ponderosa pine Pinus ponderosa Full Fruiting 39.661000000000000 -105.362000000000000 22821
Wed May 20 00:00:00 GMT 2015 DenverBotanicGardens Ponderosa pine Pinus ponderosa First Needles 39.731900000000000 -104.961000000000000 61474
Wed May 20 00:00:00 GMT 2015 DenverBotanicGardens Ponderosa pine Pinus ponderosa First Pollen 39.731900000000000 -104.961000000000000 61475
Tue May 12 00:00:00 GMT 2015 palaback Ponderosa pine Pinus ponderosa First Needles 40.307500000000000 -105.084000000000000 61525
Thu Mar 03 00:00:00 GMT 2016 ryanlthomas Ponderosa pine Pinus ponderosa First Needles (None) 43.775330000000000 -103.611970000000000 62232
Thu Mar 03 00:00:00 GMT 2016 ryanlthomas Ponderosa pine Pinus ponderosa Pollen (None) 43.775330000000000 -103.611970000000000 62233
Thu Mar 03 00:00:00 GMT 2016 ryanlthomas Ponderosa pine Pinus ponderosa Fruit (None) 43.775330000000000 -103.611970000000000 62234
Tue Feb 16 00:00:00 GMT 2016 UCCSGROUPOAKLEY Ponderosa pine Pinus ponderosa First Needles (None) 38.894983000000000 -104.802517000000000 62323
Tue Feb 16 00:00:00 GMT 2016 UCCSGROUPOAKLEY Ponderosa pine Pinus ponderosa Pollen (None) 38.894983000000000 -104.802517000000000 62324
Tue Feb 16 00:00:00 GMT 2016 UCCSGROUPOAKLEY Ponderosa pine Pinus ponderosa Fruit (None) 38.894983000000000 -104.802517000000000 62325
Tue Feb 16 00:00:00 GMT 2016 UCCSGROUPOAKLEY Ponderosa pine Pinus ponderosa First Needles (None) 38.895050000000000 -104.802450000000000 62332
Tue Feb 16 00:00:00 GMT 2016 UCCSGROUPOAKLEY Ponderosa pine Pinus ponderosa Pollen (None) 38.895050000000000 -104.802450000000000 62333
Tue Feb 16 00:00:00 GMT 2016 UCCSGROUPOAKLEY Ponderosa pine Pinus ponderosa Fruit (None) 38.895050000000000 -104.802450000000000 62334
Tue Mar 15 00:00:00 GMT 2016 UCCSGROUPOAKLEY Ponderosa pine Pinus ponderosa First Needles (None) 38.894983000000000 -104.802517000000000 62552
Tue Mar 15 00:00:00 GMT 2016 UCCSGROUPOAKLEY Ponderosa pine Pinus ponderosa Pollen (None) 38.894983000000000 -104.802517000000000 62553
Tue Mar 15 00:00:00 GMT 2016 UCCSGROUPOAKLEY Ponderosa pine Pinus ponderosa Fruit (None) 38.894983000000000 -104.802517000000000 62554
Tue Mar 15 00:00:00 GMT 2016 UCCSGROUPOAKLEY Ponderosa pine Pinus ponderosa First Needles (None) 38.895050000000000 -104.802450000000000 62555
Tue Mar 15 00:00:00 GMT 2016 UCCSGROUPOAKLEY Ponderosa pine Pinus ponderosa Pollen (None) 38.895050000000000 -104.802450000000000 62556
Tue Mar 15 00:00:00 GMT 2016 UCCSGROUPOAKLEY Ponderosa pine Pinus ponderosa Fruit (None) 38.895050000000000 -104.802450000000000 62557
Tue Feb 16 00:00:00 GMT 2016 UCCS_JTC Ponderosa pine Pinus ponderosa First Needles 38.537040000000000 -104.481680000000000 62558
Tue Feb 16 00:00:00 GMT 2016 UCCS_JTC Ponderosa pine Pinus ponderosa Pollen (None) 38.537040000000000 -104.481680000000000 62559
Tue Feb 16 00:00:00 GMT 2016 UCCS_JTC Ponderosa pine Pinus ponderosa Fruit (None) 38.537040000000000 -104.481680000000000 62560
Tue Mar 15 00:00:00 GMT 2016 UCCS_JTC Ponderosa pine Pinus ponderosa First Needles 38.537040000000000 -104.481680000000000 62564
Tue Mar 15 00:00:00 GMT 2016 UCCS_JTC Ponderosa pine Pinus ponderosa Pollen (None) 38.537040000000000 -104.481680000000000 62565
Tue Mar 15 00:00:00 GMT 2016 UCCS_JTC Ponderosa pine Pinus ponderosa Fruit (Middle) 38.537040000000000 -104.481680000000000 62566
Tue Feb 16 00:00:00 GMT 2016 UCCS_JTC Ponderosa pine Pinus ponderosa First Needles (None) 38.536830000000000 -104.481300000000000 62572
Tue Feb 16 00:00:00 GMT 2016 UCCS_JTC Ponderosa pine Pinus ponderosa Pollen (None) 38.536830000000000 -104.481300000000000 62573
Tue Feb 16 00:00:00 GMT 2016 UCCS_JTC Ponderosa pine Pinus ponderosa Fruit (None) 38.536830000000000 -104.481300000000000 62574
Tue Feb 16 00:00:00 GMT 2016 UCCSGROUPPRHL Ponderosa pine Pinus ponderosa First Needles (None) 38.894520000000000 -104.803060000000000 62575
Tue Feb 16 00:00:00 GMT 2016 UCCSGROUPPRHL Ponderosa pine Pinus ponderosa Pollen (None) 38.894520000000000 -104.803060000000000 62576
Tue Feb 16 00:00:00 GMT 2016 UCCSGROUPPRHL Ponderosa pine Pinus ponderosa Fruit (None) 38.894520000000000 -104.803060000000000 62577
Tue Mar 15 00:00:00 GMT 2016 UCCS_JTC Ponderosa pine Pinus ponderosa First Needles 38.536830000000000 -104.481300000000000 62586
Tue Mar 15 00:00:00 GMT 2016 UCCS_JTC Ponderosa pine Pinus ponderosa Pollen (None) 38.536830000000000 -104.481300000000000 62587
Tue Mar 15 00:00:00 GMT 2016 UCCS_JTC Ponderosa pine Pinus ponderosa Fruit (None) 38.536830000000000 -104.481300000000000 62588
Tue Mar 15 00:00:00 GMT 2016 UCCSGROUPPRHL Ponderosa pine Pinus ponderosa First Needles 38.894520000000000 -104.803060000000000 62589
Tue Mar 15 00:00:00 GMT 2016 UCCSGROUPPRHL Ponderosa pine Pinus ponderosa Pollen (Early) 38.894520000000000 -104.803060000000000 62590
Tue Mar 15 00:00:00 GMT 2016 UCCSGROUPPRHL Ponderosa pine Pinus ponderosa Fruit (Middle) 38.894520000000000 -104.803060000000000 62591
Tue Feb 16 00:00:00 GMT 2016 UCCSGROUPPRHL Ponderosa pine Pinus ponderosa First Needles (None) 38.894780000000000 -104.802700000000000 62592
Tue Feb 16 00:00:00 GMT 2016 UCCSGROUPPRHL Ponderosa pine Pinus ponderosa Pollen (None) 38.894780000000000 -104.802700000000000 62593
Tue Feb 16 00:00:00 GMT 2016 UCCSGROUPPRHL Ponderosa pine Pinus ponderosa Fruit (None) 38.894780000000000 -104.802700000000000 62594
Tue Mar 15 00:00:00 GMT 2016 UCCSGROUPPRHL Ponderosa pine Pinus ponderosa First Needles (None) 38.894780000000000 -104.802700000000000 62600
Tue Mar 15 00:00:00 GMT 2016 UCCSGROUPPRHL Ponderosa pine Pinus ponderosa Pollen (None) 38.894780000000000 -104.802700000000000 62601
Tue Mar 15 00:00:00 GMT 2016 UCCSGROUPPRHL Ponderosa pine Pinus ponderosa Fruit (None) 38.894780000000000 -104.802700000000000 62602
Fri Apr 22 00:00:00 GMT 2016 DenverBotanicGardens Ponderosa pine Pinus ponderosa First Needles 39.731900000000000 -104.961000000000000 65040
Sun Apr 24 00:00:00 GMT 2016 gostedgaard Ponderosa pine Pinus ponderosa First Needles 39.634670000000000 -104.787260000000000 65088
Sun Apr 24 00:00:00 GMT 2016 gostedgaard Ponderosa pine Pinus ponderosa Pollen (None) 39.634670000000000 -104.787260000000000 65089
Sun Apr 24 00:00:00 GMT 2016 gostedgaard Ponderosa pine Pinus ponderosa Fruit (None) 39.634670000000000 -104.787260000000000 65090
Mon Apr 25 00:00:00 GMT 2016 AEcklund Ponderosa pine Pinus ponderosa First Needles (None) 40.117170000000000 -75.110560000000000 65176
Mon Apr 25 00:00:00 GMT 2016 AEcklund Ponderosa pine Pinus ponderosa Pollen (None) 40.117170000000000 -75.110560000000000 65177
Mon Apr 25 00:00:00 GMT 2016 AEcklund Ponderosa pine Pinus ponderosa Fruit (None) 40.117170000000000 -75.110560000000000 65178
Mon Apr 25 00:00:00 GMT 2016 allison_in_color Ponderosa pine Pinus ponderosa First Needles 40.117170000000000 -75.110560000000000 65217
Mon Apr 25 00:00:00 GMT 2016 allison_in_color Ponderosa pine Pinus ponderosa Pollen (Early) 40.117170000000000 -75.110560000000000 65218
Mon Apr 25 00:00:00 GMT 2016 allison_in_color Ponderosa pine Pinus ponderosa Fruit (None) 40.117170000000000 -75.110560000000000 65219
Tue Apr 26 00:00:00 GMT 2016 UCCSGROUPPRHL Ponderosa pine Pinus ponderosa First Needles 38.894780000000000 -104.802700000000000 65483
Tue Apr 26 00:00:00 GMT 2016 UCCSGROUPPRHL Ponderosa pine Pinus ponderosa Pollen (Middle) 38.894780000000000 -104.802700000000000 65484
Tue Apr 26 00:00:00 GMT 2016 UCCSGROUPPRHL Ponderosa pine Pinus ponderosa Fruit (Late) 38.894780000000000 -104.802700000000000 65485
Tue Apr 26 00:00:00 GMT 2016 UCCS_JTC Ponderosa pine Pinus ponderosa First Needles 38.537040000000000 -104.481680000000000 65489
Tue Apr 26 00:00:00 GMT 2016 UCCS_JTC Ponderosa pine Pinus ponderosa Pollen (None) 38.537040000000000 -104.481680000000000 65490
Tue Apr 26 00:00:00 GMT 2016 UCCS_JTC Ponderosa pine Pinus ponderosa Fruit (None) 38.537040000000000 -104.481680000000000 65491
Tue Apr 26 00:00:00 GMT 2016 UCCSGROUPPRHL Ponderosa pine Pinus ponderosa First Needles 38.894520000000000 -104.803060000000000 65492
Tue Apr 26 00:00:00 GMT 2016 UCCSGROUPPRHL Ponderosa pine Pinus ponderosa Pollen (Middle) 38.894520000000000 -104.803060000000000 65493
Tue Apr 26 00:00:00 GMT 2016 UCCSGROUPPRHL Ponderosa pine Pinus ponderosa Fruit (Early) 38.894520000000000 -104.803060000000000 65494
Tue Apr 26 00:00:00 GMT 2016 UCCS_JTC Ponderosa pine Pinus ponderosa First Needles (None) 38.536830000000000 -104.481300000000000 65495
Tue Apr 26 00:00:00 GMT 2016 UCCS_JTC Ponderosa pine Pinus ponderosa Pollen (None) 38.536830000000000 -104.481300000000000 65496
Tue Apr 26 00:00:00 GMT 2016 UCCS_JTC Ponderosa pine Pinus ponderosa Fruit (None) 38.536830000000000 -104.481300000000000 65497
Tue Apr 26 00:00:00 GMT 2016 UCCSGROUPOAKLEY Ponderosa pine Pinus ponderosa First Needles (None) 38.894900000000000 -104.802500000000000 65498
Tue Apr 26 00:00:00 GMT 2016 UCCSGROUPOAKLEY Ponderosa pine Pinus ponderosa Pollen (None) 38.894900000000000 -104.802500000000000 65499
Tue Apr 26 00:00:00 GMT 2016 UCCSGROUPOAKLEY Ponderosa pine Pinus ponderosa Fruit (Early) 38.894900000000000 -104.802500000000000 65500
Tue Apr 26 00:00:00 GMT 2016 UCCSGROUPOAKLEY Ponderosa pine Pinus ponderosa First Needles (None) 38.895100000000000 -104.802500000000000 65509
Tue Apr 26 00:00:00 GMT 2016 UCCSGROUPOAKLEY Ponderosa pine Pinus ponderosa Pollen (None) 38.895100000000000 -104.802500000000000 65510
Tue Apr 26 00:00:00 GMT 2016 UCCSGROUPOAKLEY Ponderosa pine Pinus ponderosa Fruit (Early) 38.895100000000000 -104.802500000000000 65511
Sat Apr 23 00:00:00 GMT 2016 birdlover Ponderosa pine Pinus ponderosa First Needles 40.790300000000000 -96.791500000000000 66047
Mon May 23 00:00:00 GMT 2016 DenverBotanicGardens Ponderosa pine Pinus ponderosa First Pollen 39.731900000000000 -104.961000000000000 67552
Mon May 23 00:00:00 GMT 2016 DenverBotanicGardens Ponderosa pine Pinus ponderosa Full Pollen 39.731900000000000 -104.961000000000000 67553
Thu Aug 25 00:00:00 GMT 2016 kdevergie2015 Ponderosa pine Pinus ponderosa First Ripe Fruit 40.045010000000000 -107.907580000000000 69640
Tue Sep 13 00:00:00 GMT 2016 DenverBotanicGardens Ponderosa pine Pinus ponderosa First Ripe Fruit 39.731900000000000 -104.961000000000000 69856
Thu Sep 29 00:00:00 GMT 2016 mthurber_Einstein_MS_reporter15 Ponderosa pine Pinus ponderosa First Needles (None) 47.769240000000000 -122.362410000000000 70281
Thu Sep 29 00:00:00 GMT 2016 mthurber_Einstein_MS_reporter15 Ponderosa pine Pinus ponderosa Pollen (None) 47.769240000000000 -122.362410000000000 70282
Thu Sep 29 00:00:00 GMT 2016 mthurber_Einstein_MS_reporter15 Ponderosa pine Pinus ponderosa Fruit (Middle) 47.769240000000000 -122.362410000000000 70283
Tue Oct 25 00:00:00 GMT 2016 DenverBotanicGardens Ponderosa pine Pinus ponderosa Full Fruiting 39.731900000000000 -104.961000000000000 71216
Sat Jan 28 00:00:00 GMT 2017 smat10 Ponderosa pine Pinus ponderosa First Needles (None) 29.594770000000000 -82.205520000000000 74583
Sat Jan 28 00:00:00 GMT 2017 smat10 Ponderosa pine Pinus ponderosa Pollen (None) 29.594770000000000 -82.205520000000000 74584
Sat Jan 28 00:00:00 GMT 2017 smat10 Ponderosa pine Pinus ponderosa Fruit (None) 29.594770000000000 -82.205520000000000 74585
Fri Apr 14 00:00:00 GMT 2017 VictorLin Ponderosa pine Pinus ponderosa First Needles 37.415968000000000 -122.122084000000000 77997
Fri Apr 14 00:00:00 GMT 2017 VictorLin Ponderosa pine Pinus ponderosa Pollen (Early) 37.415968000000000 -122.122084000000000 77998
Fri Apr 14 00:00:00 GMT 2017 VictorLin Ponderosa pine Pinus ponderosa Fruit (Middle) 37.415968000000000 -122.122084000000000 77999
Sun Apr 16 00:00:00 GMT 2017 ashester Ponderosa pine Pinus ponderosa First Needles 37.445180000000000 -122.131580000000000 78138
Sun Apr 16 00:00:00 GMT 2017 ashester Ponderosa pine Pinus ponderosa Pollen (Early) 37.445180000000000 -122.131580000000000 78139
Sun Apr 16 00:00:00 GMT 2017 ashester Ponderosa pine Pinus ponderosa Fruit (Early) 37.445180000000000 -122.131580000000000 78140
Sat Apr 08 00:00:00 GMT 2017 kolbrick Ponderosa pine Pinus ponderosa First Needles 46.589069000000000 -112.059517000000000 81608
Sat Apr 08 00:00:00 GMT 2017 kolbrick Ponderosa pine Pinus ponderosa Pollen (None) 46.589069000000000 -112.059517000000000 81609
Sat Apr 08 00:00:00 GMT 2017 kolbrick Ponderosa pine Pinus ponderosa Fruit (None) 46.589069000000000 -112.059517000000000 81610

*All downloadable materials require the free Adobe Reader.